sensor_id;sensor_type;location;lat;lon;timestamp;pressure;altitude;pressure_sealevel;temperature;humidity
20119;BME280;10220;42.716;23.306;2023-05-16T00:00:05;94937.53;;;15.08;100.00
20119;BME280;10220;42.716;23.306;2023-05-16T00:02:34;94922.34;;;15.05;100.00
20119;BME280;10220;42.716;23.306;2023-05-16T00:05:00;94926.56;;;15.06;100.00
20119;BME280;10220;42.716;23.306;2023-05-16T00:07:26;94931.19;;;15.04;100.00
20119;BME280;10220;42.716;23.306;2023-05-16T00:09:54;94917.19;;;14.94;100.00
20119;BME280;10220;42.716;23.306;2023-05-16T00:12:19;94930.88;;;15.01;100.00
20119;BME280;10220;42.716;23.306;2023-05-16T00:14:46;94917.59;;;15.02;100.00
20119;BME280;10220;42.716;23.306;2023-05-16T00:17:13;94907.53;;;14.94;100.00
20119;BME280;10220;42.716;23.306;2023-05-16T00:19:38;94927.16;;;14.97;100.00
20119;BME280;10220;42.716;23.306;2023-05-16T00:22:06;94915.75;;;14.86;100.00
20119;BME280;10220;42.716;23.306;2023-05-16T00:24:33;94909.56;;;14.76;100.00
20119;BME280;10220;42.716;23.306;2023-05-16T00:26:58;94917.97;;;14.78;100.00
20119;BME280;10220;42.716;23.306;2023-05-16T00:29:23;94925.50;;;14.91;100.00
20119;BME280;10220;42.716;23.306;2023-05-16T00:31:49;94928.25;;;15.01;100.00
20119;BME280;10220;42.716;23.306;2023-05-16T00:34:14;94912.53;;;14.96;100.00
20119;BME280;10220;42.716;23.306;2023-05-16T00:36:40;94906.56;;;15.12;100.00
20119;BME280;10220;42.716;23.306;2023-05-16T00:39:05;94907.25;;;15.07;100.00
20119;BME280;10220;42.716;23.306;2023-05-16T00:41:32;94905.44;;;15.08;100.00
20119;BME280;10220;42.716;23.306;2023-05-16T00:43:58;94907.31;;;15.12;100.00
20119;BME280;10220;42.716;23.306;2023-05-16T00:46:23;94890.09;;;14.95;100.00
20119;BME280;10220;42.716;23.306;2023-05-16T00:48:49;94882.25;;;14.78;100.00
20119;BME280;10220;42.716;23.306;2023-05-16T00:51:16;94888.31;;;14.68;100.00
20119;BME280;10220;42.716;23.306;2023-05-16T00:53:42;94881.03;;;14.69;100.00
20119;BME280;10220;42.716;23.306;2023-05-16T00:56:11;94885.09;;;14.77;100.00
20119;BME280;10220;42.716;23.306;2023-05-16T00:58:36;94888.25;;;14.79;100.00
20119;BME280;10220;42.716;23.306;2023-05-16T01:01:04;94885.88;;;14.77;100.00
20119;BME280;10220;42.716;23.306;2023-05-16T01:03:32;94873.94;;;14.65;100.00
20119;BME280;10220;42.716;23.306;2023-05-16T01:05:58;94884.16;;;14.83;100.00
20119;BME280;10220;42.716;23.306;2023-05-16T01:08:26;94874.09;;;14.75;100.00
20119;BME280;10220;42.716;23.306;2023-05-16T01:11:01;94882.19;;;14.90;100.00
20119;BME280;10220;42.716;23.306;2023-05-16T01:13:35;94877.19;;;14.88;100.00
20119;BME280;10220;42.716;23.306;2023-05-16T01:16:12;94877.50;;;14.92;100.00
20119;BME280;10220;42.716;23.306;2023-05-16T01:21:31;94874.19;;;14.96;100.00
20119;BME280;10220;42.716;23.306;2023-05-16T01:24:53;94857.03;;;15.00;100.00
20119;BME280;10220;42.716;23.306;2023-05-16T01:26:53;94867.53;;;14.89;100.00
20119;BME280;10220;42.716;23.306;2023-05-16T01:29:20;94861.78;;;14.87;100.00
20119;BME280;10220;42.716;23.306;2023-05-16T01:31:46;94862.19;;;14.79;100.00
20119;BME280;10220;42.716;23.306;2023-05-16T01:34:11;94860.91;;;14.81;100.00
20119;BME280;10220;42.716;23.306;2023-05-16T01:41:56;94829.53;;;14.76;100.00
20119;BME280;10220;42.716;23.306;2023-05-16T01:44:33;94837.75;;;14.85;100.00
20119;BME280;10220;42.716;23.306;2023-05-16T01:47:01;94851.19;;;14.77;100.00
20119;BME280;10220;42.716;23.306;2023-05-16T01:49:36;94842.44;;;14.83;100.00
20119;BME280;10220;42.716;23.306;2023-05-16T01:52:27;94836.00;;;14.74;100.00
20119;BME280;10220;42.716;23.306;2023-05-16T01:54:57;94833.94;;;14.76;100.00
20119;BME280;10220;42.716;23.306;2023-05-16T01:57:26;94829.16;;;14.84;100.00
20119;BME280;10220;42.716;23.306;2023-05-16T01:59:52;94824.69;;;14.68;100.00
20119;BME280;10220;42.716;23.306;2023-05-16T02:02:18;94834.28;;;14.79;100.00
20119;BME280;10220;42.716;23.306;2023-05-16T02:04:44;94826.13;;;14.76;100.00
20119;BME280;10220;42.716;23.306;2023-05-16T02:07:11;94827.00;;;14.81;100.00
20119;BME280;10220;42.716;23.306;2023-05-16T02:09:39;94827.47;;;14.78;100.00
20119;BME280;10220;42.716;23.306;2023-05-16T02:12:07;94831.19;;;14.82;100.00
20119;BME280;10220;42.716;23.306;2023-05-16T02:14:32;94830.16;;;14.83;100.00
20119;BME280;10220;42.716;23.306;2023-05-16T02:16:58;94826.78;;;14.83;100.00
20119;BME280;10220;42.716;23.306;2023-05-16T02:19:23;94819.56;;;14.73;100.00
20119;BME280;10220;42.716;23.306;2023-05-16T02:21:51;94820.47;;;14.79;100.00
20119;BME280;10220;42.716;23.306;2023-05-16T02:24:18;94823.34;;;14.82;100.00
20119;BME280;10220;42.716;23.306;2023-05-16T02:26:44;94825.28;;;14.87;100.00
20119;BME280;10220;42.716;23.306;2023-05-16T02:29:11;94820.66;;;14.77;100.00
20119;BME280;10220;42.716;23.306;2023-05-16T02:31:37;94831.34;;;14.76;100.00
20119;BME280;10220;42.716;23.306;2023-05-16T02:34:02;94805.66;;;14.68;100.00
20119;BME280;10220;42.716;23.306;2023-05-16T02:36:28;94826.28;;;14.69;100.00
20119;BME280;10220;42.716;23.306;2023-05-16T02:38:53;94815.44;;;14.77;100.00
20119;BME280;10220;42.716;23.306;2023-05-16T02:41:19;94835.84;;;14.97;100.00
20119;BME280;10220;42.716;23.306;2023-05-16T02:43:47;94832.13;;;14.93;100.00
20119;BME280;10220;42.716;23.306;2023-05-16T02:46:39;94835.69;;;15.03;100.00
20119;BME280;10220;42.716;23.306;2023-05-16T02:49:07;94821.22;;;15.12;100.00
20119;BME280;10220;42.716;23.306;2023-05-16T02:51:32;94827.41;;;15.23;100.00
20119;BME280;10220;42.716;23.306;2023-05-16T02:54:00;94825.00;;;15.05;100.00
20119;BME280;10220;42.716;23.306;2023-05-16T02:56:28;94818.22;;;14.87;100.00
20119;BME280;10220;42.716;23.306;2023-05-16T02:58:54;94802.13;;;14.74;100.00
20119;BME280;10220;42.716;23.306;2023-05-16T03:01:20;94815.78;;;14.97;100.00
20119;BME280;10220;42.716;23.306;2023-05-16T03:03:48;94820.59;;;14.89;100.00
20119;BME280;10220;42.716;23.306;2023-05-16T03:06:13;94810.88;;;14.84;100.00
20119;BME280;10220;42.716;23.306;2023-05-16T03:08:39;94787.88;;;14.81;100.00
20119;BME280;10220;42.716;23.306;2023-05-16T03:11:04;94814.44;;;14.95;100.00
20119;BME280;10220;42.716;23.306;2023-05-16T03:13:30;94811.19;;;14.88;100.00
20119;BME280;10220;42.716;23.306;2023-05-16T03:15:55;94806.84;;;14.77;100.00
20119;BME280;10220;42.716;23.306;2023-05-16T03:18:21;94805.81;;;14.78;100.00
20119;BME280;10220;42.716;23.306;2023-05-16T03:20:46;94808.88;;;14.75;100.00
20119;BME280;10220;42.716;23.306;2023-05-16T03:23:13;94802.34;;;14.72;100.00
20119;BME280;10220;42.716;23.306;2023-05-16T03:25:41;94798.84;;;14.67;100.00
20119;BME280;10220;42.716;23.306;2023-05-16T03:28:07;94808.03;;;14.69;100.00
20119;BME280;10220;42.716;23.306;2023-05-16T03:30:33;94804.41;;;14.70;100.00
20119;BME280;10220;42.716;23.306;2023-05-16T03:33:02;94813.41;;;14.79;100.00
20119;BME280;10220;42.716;23.306;2023-05-16T03:35:31;94805.41;;;14.69;100.00
20119;BME280;10220;42.716;23.306;2023-05-16T03:37:57;94804.16;;;14.72;100.00
20119;BME280;10220;42.716;23.306;2023-05-16T03:40:23;94809.78;;;14.80;100.00
20119;BME280;10220;42.716;23.306;2023-05-16T03:42:48;94806.44;;;14.85;100.00
20119;BME280;10220;42.716;23.306;2023-05-16T03:45:14;94796.00;;;14.85;100.00
20119;BME280;10220;42.716;23.306;2023-05-16T03:47:39;94808.81;;;14.86;100.00
20119;BME280;10220;42.716;23.306;2023-05-16T03:50:05;94816.88;;;14.85;100.00
20119;BME280;10220;42.716;23.306;2023-05-16T03:52:31;94818.72;;;14.84;100.00
20119;BME280;10220;42.716;23.306;2023-05-16T03:54:59;94810.88;;;14.84;100.00
20119;BME280;10220;42.716;23.306;2023-05-16T03:57:26;94797.91;;;14.73;100.00
20119;BME280;10220;42.716;23.306;2023-05-16T03:59:51;94812.47;;;14.69;100.00
20119;BME280;10220;42.716;23.306;2023-05-16T04:02:17;94795.88;;;14.59;100.00
20119;BME280;10220;42.716;23.306;2023-05-16T04:04:42;94806.53;;;14.73;100.00
20119;BME280;10220;42.716;23.306;2023-05-16T04:07:10;94807.72;;;14.66;100.00
20119;BME280;10220;42.716;23.306;2023-05-16T04:09:39;94806.38;;;14.80;100.00
20119;BME280;10220;42.716;23.306;2023-05-16T04:12:05;94802.75;;;14.81;100.00
20119;BME280;10220;42.716;23.306;2023-05-16T04:14:34;94801.00;;;14.86;100.00
20119;BME280;10220;42.716;23.306;2023-05-16T04:16:59;94796.25;;;14.83;100.00
20119;BME280;10220;42.716;23.306;2023-05-16T04:19:25;94809.38;;;14.88;100.00
20119;BME280;10220;42.716;23.306;2023-05-16T04:21:51;94815.53;;;14.99;100.00
20119;BME280;10220;42.716;23.306;2023-05-16T04:24:17;94805.56;;;14.96;100.00
20119;BME280;10220;42.716;23.306;2023-05-16T04:26:43;94810.63;;;15.02;100.00
20119;BME280;10220;42.716;23.306;2023-05-16T04:29:09;94802.09;;;15.07;100.00
20119;BME280;10220;42.716;23.306;2023-05-16T04:31:35;94804.94;;;15.05;100.00
20119;BME280;10220;42.716;23.306;2023-05-16T04:34:03;94797.38;;;15.04;100.00
20119;BME280;10220;42.716;23.306;2023-05-16T04:36:29;94797.56;;;15.02;100.00
20119;BME280;10220;42.716;23.306;2023-05-16T04:38:55;94793.66;;;15.00;100.00
20119;BME280;10220;42.716;23.306;2023-05-16T04:41:21;94802.16;;;15.12;100.00
20119;BME280;10220;42.716;23.306;2023-05-16T04:43:48;94794.44;;;15.00;100.00
20119;BME280;10220;42.716;23.306;2023-05-16T04:46:13;94798.22;;;15.09;100.00
20119;BME280;10220;42.716;23.306;2023-05-16T04:48:42;94794.75;;;15.20;100.00
20119;BME280;10220;42.716;23.306;2023-05-16T04:51:08;94803.03;;;15.17;100.00
20119;BME280;10220;42.716;23.306;2023-05-16T04:53:33;94792.69;;;15.22;100.00
20119;BME280;10220;42.716;23.306;2023-05-16T04:55:59;94802.78;;;15.19;100.00
20119;BME280;10220;42.716;23.306;2023-05-16T04:58:25;94799.72;;;15.22;100.00
20119;BME280;10220;42.716;23.306;2023-05-16T05:00:50;94799.56;;;15.28;100.00
20119;BME280;10220;42.716;23.306;2023-05-16T05:03:16;94796.94;;;15.28;100.00
20119;BME280;10220;42.716;23.306;2023-05-16T05:05:42;94790.00;;;15.33;100.00
20119;BME280;10220;42.716;23.306;2023-05-16T05:08:10;94804.00;;;15.27;100.00
20119;BME280;10220;42.716;23.306;2023-05-16T05:10:36;94775.03;;;15.13;100.00
20119;BME280;10220;42.716;23.306;2023-05-16T05:13:01;94808.97;;;15.29;100.00
20119;BME280;10220;42.716;23.306;2023-05-16T05:15:26;94811.25;;;15.26;100.00
20119;BME280;10220;42.716;23.306;2023-05-16T05:17:52;94816.81;;;15.29;100.00
20119;BME280;10220;42.716;23.306;2023-05-16T05:20:20;94782.94;;;15.18;100.00
20119;BME280;10220;42.716;23.306;2023-05-16T05:22:48;94791.97;;;15.27;100.00
20119;BME280;10220;42.716;23.306;2023-05-16T05:25:13;94798.16;;;15.21;100.00
20119;BME280;10220;42.716;23.306;2023-05-16T05:27:39;94783.91;;;15.12;100.00
20119;BME280;10220;42.716;23.306;2023-05-16T05:30:05;94809.28;;;15.32;100.00
20119;BME280;10220;42.716;23.306;2023-05-16T05:32:31;94798.84;;;15.32;100.00
20119;BME280;10220;42.716;23.306;2023-05-16T05:34:56;94788.69;;;15.36;100.00
20119;BME280;10220;42.716;23.306;2023-05-16T05:37:22;94789.19;;;15.33;100.00
20119;BME280;10220;42.716;23.306;2023-05-16T05:39:47;94784.03;;;15.38;100.00
20119;BME280;10220;42.716;23.306;2023-05-16T05:42:13;94784.19;;;15.48;100.00
20119;BME280;10220;42.716;23.306;2023-05-16T05:44:38;94784.88;;;15.43;100.00
20119;BME280;10220;42.716;23.306;2023-05-16T05:47:05;94776.72;;;15.40;100.00
20119;BME280;10220;42.716;23.306;2023-05-16T05:49:30;94750.78;;;15.28;100.00
20119;BME280;10220;42.716;23.306;2023-05-16T05:51:56;94771.16;;;15.31;100.00
20119;BME280;10220;42.716;23.306;2023-05-16T05:54:24;94773.09;;;15.41;100.00
20119;BME280;10220;42.716;23.306;2023-05-16T05:56:49;94771.84;;;15.43;100.00
20119;BME280;10220;42.716;23.306;2023-05-16T05:59:15;94779.56;;;15.55;100.00
20119;BME280;10220;42.716;23.306;2023-05-16T06:01:40;94778.72;;;15.49;100.00
20119;BME280;10220;42.716;23.306;2023-05-16T06:04:06;94776.81;;;15.45;100.00
20119;BME280;10220;42.716;23.306;2023-05-16T06:06:32;94762.75;;;15.29;100.00
20119;BME280;10220;42.716;23.306;2023-05-16T06:09:00;94762.84;;;15.34;100.00
20119;BME280;10220;42.716;23.306;2023-05-16T06:11:28;94760.88;;;15.25;100.00
20119;BME280;10220;42.716;23.306;2023-05-16T06:13:56;94753.81;;;15.42;100.00
20119;BME280;10220;42.716;23.306;2023-05-16T06:16:25;94761.06;;;15.40;100.00
20119;BME280;10220;42.716;23.306;2023-05-16T06:19:06;94757.19;;;15.42;100.00
20119;BME280;10220;42.716;23.306;2023-05-16T06:21:36;94768.19;;;15.44;100.00
20119;BME280;10220;42.716;23.306;2023-05-16T06:24:02;94761.63;;;15.42;100.00
20119;BME280;10220;42.716;23.306;2023-05-16T06:26:30;94765.47;;;15.56;100.00
20119;BME280;10220;42.716;23.306;2023-05-16T06:28:56;94774.41;;;15.60;100.00
20119;BME280;10220;42.716;23.306;2023-05-16T06:31:24;94788.91;;;15.51;100.00
20119;BME280;10220;42.716;23.306;2023-05-16T06:33:52;94766.19;;;15.51;100.00
20119;BME280;10220;42.716;23.306;2023-05-16T06:36:18;94782.72;;;15.78;100.00
20119;BME280;10220;42.716;23.306;2023-05-16T06:38:43;94750.91;;;15.60;100.00
20119;BME280;10220;42.716;23.306;2023-05-16T06:41:09;94773.47;;;15.71;100.00
20119;BME280;10220;42.716;23.306;2023-05-16T06:43:37;94747.84;;;15.68;100.00
20119;BME280;10220;42.716;23.306;2023-05-16T06:46:02;94757.63;;;15.77;100.00
20119;BME280;10220;42.716;23.306;2023-05-16T06:48:28;94777.81;;;15.82;100.00
20119;BME280;10220;42.716;23.306;2023-05-16T06:50:54;94774.69;;;15.63;100.00
20119;BME280;10220;42.716;23.306;2023-05-16T06:53:19;94765.72;;;15.76;100.00
20119;BME280;10220;42.716;23.306;2023-05-16T06:55:48;94734.53;;;15.69;100.00
20119;BME280;10220;42.716;23.306;2023-05-16T06:58:13;94728.09;;;15.77;100.00
20119;BME280;10220;42.716;23.306;2023-05-16T07:00:40;94705.03;;;15.69;100.00
20119;BME280;10220;42.716;23.306;2023-05-16T07:03:05;94706.75;;;15.58;100.00
20119;BME280;10220;42.716;23.306;2023-05-16T07:05:31;94735.44;;;15.80;100.00
20119;BME280;10220;42.716;23.306;2023-05-16T07:07:56;94753.03;;;15.89;100.00
20119;BME280;10220;42.716;23.306;2023-05-16T07:10:22;94738.31;;;15.78;100.00
20119;BME280;10220;42.716;23.306;2023-05-16T07:12:47;94753.28;;;15.87;100.00
20119;BME280;10220;42.716;23.306;2023-05-16T07:15:13;94742.72;;;15.99;100.00
20119;BME280;10220;42.716;23.306;2023-05-16T07:17:39;94711.25;;;15.89;100.00
20119;BME280;10220;42.716;23.306;2023-05-16T07:20:05;94730.28;;;15.85;100.00
20119;BME280;10220;42.716;23.306;2023-05-16T07:22:32;94731.44;;;15.93;100.00
20119;BME280;10220;42.716;23.306;2023-05-16T07:24:58;94724.13;;;15.95;100.00
20119;BME280;10220;42.716;23.306;2023-05-16T07:27:25;94706.31;;;15.92;100.00
20119;BME280;10220;42.716;23.306;2023-05-16T07:29:51;94695.88;;;15.92;100.00
20119;BME280;10220;42.716;23.306;2023-05-16T07:32:17;94726.38;;;16.13;100.00
20119;BME280;10220;42.716;23.306;2023-05-16T07:34:42;94701.44;;;16.01;100.00
20119;BME280;10220;42.716;23.306;2023-05-16T07:37:07;94709.06;;;16.29;100.00
20119;BME280;10220;42.716;23.306;2023-05-16T07:39:38;94717.06;;;16.22;100.00
20119;BME280;10220;42.716;23.306;2023-05-16T07:42:06;94738.75;;;16.49;100.00
20119;BME280;10220;42.716;23.306;2023-05-16T07:44:31;94746.59;;;16.49;100.00
20119;BME280;10220;42.716;23.306;2023-05-16T07:46:57;94732.16;;;16.42;100.00
20119;BME280;10220;42.716;23.306;2023-05-16T07:49:22;94728.03;;;16.46;100.00
20119;BME280;10220;42.716;23.306;2023-05-16T07:51:48;94737.47;;;16.51;100.00
20119;BME280;10220;42.716;23.306;2023-05-16T07:54:13;94740.94;;;16.62;100.00
20119;BME280;10220;42.716;23.306;2023-05-16T07:56:39;94725.91;;;16.43;100.00
20119;BME280;10220;42.716;23.306;2023-05-16T07:59:07;94730.91;;;16.49;100.00
20119;BME280;10220;42.716;23.306;2023-05-16T08:01:33;94708.44;;;16.48;100.00
20119;BME280;10220;42.716;23.306;2023-05-16T08:03:58;94732.59;;;16.60;100.00
20119;BME280;10220;42.716;23.306;2023-05-16T08:06:24;94734.69;;;16.63;100.00
20119;BME280;10220;42.716;23.306;2023-05-16T08:08:49;94728.13;;;16.60;100.00
20119;BME280;10220;42.716;23.306;2023-05-16T08:11:15;94718.72;;;16.59;100.00
20119;BME280;10220;42.716;23.306;2023-05-16T08:13:40;94712.81;;;16.74;100.00
20119;BME280;10220;42.716;23.306;2023-05-16T08:16:06;94719.13;;;16.78;100.00
20119;BME280;10220;42.716;23.306;2023-05-16T08:18:31;94711.09;;;16.94;100.00
20119;BME280;10220;42.716;23.306;2023-05-16T08:20:56;94693.59;;;16.95;100.00
20119;BME280;10220;42.716;23.306;2023-05-16T08:23:22;94700.91;;;16.98;100.00
20119;BME280;10220;42.716;23.306;2023-05-16T08:25:48;94703.34;;;17.09;100.00
20119;BME280;10220;42.716;23.306;2023-05-16T08:28:14;94720.91;;;17.13;100.00
20119;BME280;10220;42.716;23.306;2023-05-16T08:30:39;94702.63;;;17.23;100.00
20119;BME280;10220;42.716;23.306;2023-05-16T08:33:05;94717.22;;;17.09;100.00
20119;BME280;10220;42.716;23.306;2023-05-16T08:35:31;94715.38;;;17.10;100.00
20119;BME280;10220;42.716;23.306;2023-05-16T08:37:56;94712.28;;;17.23;100.00
20119;BME280;10220;42.716;23.306;2023-05-16T08:40:24;94698.75;;;17.31;100.00
20119;BME280;10220;42.716;23.306;2023-05-16T08:42:50;94700.56;;;17.25;100.00
20119;BME280;10220;42.716;23.306;2023-05-16T08:45:16;94716.00;;;17.27;100.00
20119;BME280;10220;42.716;23.306;2023-05-16T08:47:42;94710.53;;;17.28;100.00
20119;BME280;10220;42.716;23.306;2023-05-16T08:50:09;94706.63;;;17.36;100.00
20119;BME280;10220;42.716;23.306;2023-05-16T08:52:36;94703.78;;;17.42;100.00
20119;BME280;10220;42.716;23.306;2023-05-16T08:55:03;94697.78;;;17.47;100.00
20119;BME280;10220;42.716;23.306;2023-05-16T08:57:36;94691.75;;;17.46;100.00
20119;BME280;10220;42.716;23.306;2023-05-16T09:00:02;94704.59;;;17.53;100.00
20119;BME280;10220;42.716;23.306;2023-05-16T09:02:31;94717.50;;;17.64;100.00
20119;BME280;10220;42.716;23.306;2023-05-16T09:04:57;94699.16;;;17.64;100.00
20119;BME280;10220;42.716;23.306;2023-05-16T09:07:23;94691.81;;;17.71;100.00
20119;BME280;10220;42.716;23.306;2023-05-16T09:09:49;94700.53;;;17.86;100.00
20119;BME280;10220;42.716;23.306;2023-05-16T09:12:14;94665.88;;;17.69;100.00
20119;BME280;10220;42.716;23.306;2023-05-16T09:14:41;94652.00;;;17.64;100.00
20119;BME280;10220;42.716;23.306;2023-05-16T09:17:07;94696.38;;;18.00;100.00
20119;BME280;10220;42.716;23.306;2023-05-16T09:19:43;94707.13;;;18.04;100.00
20119;BME280;10220;42.716;23.306;2023-05-16T09:22:10;94701.84;;;17.94;100.00
20119;BME280;10220;42.716;23.306;2023-05-16T09:24:43;94712.13;;;18.05;100.00
20119;BME280;10220;42.716;23.306;2023-05-16T09:27:10;94719.44;;;18.03;100.00
20119;BME280;10220;42.716;23.306;2023-05-16T09:29:39;94713.66;;;17.96;100.00
20119;BME280;10220;42.716;23.306;2023-05-16T09:32:15;94716.06;;;18.08;100.00
20119;BME280;10220;42.716;23.306;2023-05-16T09:34:46;94710.00;;;17.97;100.00
20119;BME280;10220;42.716;23.306;2023-05-16T09:37:13;94699.25;;;18.09;100.00
20119;BME280;10220;42.716;23.306;2023-05-16T09:39:45;94677.22;;;18.05;100.00
20119;BME280;10220;42.716;23.306;2023-05-16T09:42:14;94677.75;;;17.87;100.00
20119;BME280;10220;42.716;23.306;2023-05-16T09:44:41;94679.84;;;18.10;100.00
20119;BME280;10220;42.716;23.306;2023-05-16T09:47:13;94692.22;;;18.29;100.00
20119;BME280;10220;42.716;23.306;2023-05-16T09:49:40;94693.28;;;18.28;100.00
20119;BME280;10220;42.716;23.306;2023-05-16T09:52:05;94709.28;;;18.22;100.00
20119;BME280;10220;42.716;23.306;2023-05-16T09:54:31;94707.19;;;18.38;100.00
20119;BME280;10220;42.716;23.306;2023-05-16T09:56:58;94693.53;;;18.51;100.00
20119;BME280;10220;42.716;23.306;2023-05-16T09:59:24;94690.41;;;18.49;100.00
20119;BME280;10220;42.716;23.306;2023-05-16T10:01:51;94684.09;;;18.60;100.00
20119;BME280;10220;42.716;23.306;2023-05-16T10:04:17;94675.19;;;18.71;100.00
20119;BME280;10220;42.716;23.306;2023-05-16T10:06:44;94686.97;;;18.88;100.00
20119;BME280;10220;42.716;23.306;2023-05-16T10:09:11;94682.75;;;18.97;100.00
20119;BME280;10220;42.716;23.306;2023-05-16T10:11:41;94687.22;;;19.07;100.00
20119;BME280;10220;42.716;23.306;2023-05-16T10:14:09;94700.34;;;19.17;100.00
20119;BME280;10220;42.716;23.306;2023-05-16T10:16:36;94697.44;;;19.08;100.00
20119;BME280;10220;42.716;23.306;2023-05-16T10:19:02;94676.97;;;18.90;100.00
20119;BME280;10220;42.716;23.306;2023-05-16T10:21:31;94700.34;;;18.77;100.00
20119;BME280;10220;42.716;23.306;2023-05-16T10:23:58;94706.88;;;18.94;100.00
20119;BME280;10220;42.716;23.306;2023-05-16T10:26:28;94687.75;;;18.84;100.00
20119;BME280;10220;42.716;23.306;2023-05-16T10:28:54;94706.88;;;18.99;100.00
20119;BME280;10220;42.716;23.306;2023-05-16T10:31:20;94674.88;;;18.83;100.00
20119;BME280;10220;42.716;23.306;2023-05-16T10:33:46;94669.63;;;18.92;100.00
20119;BME280;10220;42.716;23.306;2023-05-16T10:36:12;94676.47;;;18.88;100.00
20119;BME280;10220;42.716;23.306;2023-05-16T10:38:39;94671.47;;;18.92;100.00
20119;BME280;10220;42.716;23.306;2023-05-16T10:41:06;94676.97;;;19.00;100.00
20119;BME280;10220;42.716;23.306;2023-05-16T10:43:31;94668.31;;;18.90;100.00
20119;BME280;10220;42.716;23.306;2023-05-16T10:46:10;94659.59;;;19.04;100.00
20119;BME280;10220;42.716;23.306;2023-05-16T10:48:38;94641.25;;;19.14;100.00
20119;BME280;10220;42.716;23.306;2023-05-16T10:53:52;94644.41;;;19.01;100.00
20119;BME280;10220;42.716;23.306;2023-05-16T10:56:26;94638.66;;;18.89;100.00
20119;BME280;10220;42.716;23.306;2023-05-16T10:58:53;94641.78;;;18.86;100.00
20119;BME280;10220;42.716;23.306;2023-05-16T11:01:34;94639.22;;;18.82;100.00
20119;BME280;10220;42.716;23.306;2023-05-16T11:04:01;94647.84;;;18.82;100.00
20119;BME280;10220;42.716;23.306;2023-05-16T11:06:33;94649.94;;;18.80;100.00
20119;BME280;10220;42.716;23.306;2023-05-16T11:14:23;94673.88;;;18.59;100.00
20119;BME280;10220;42.716;23.306;2023-05-16T11:16:52;94672.78;;;18.70;100.00
20119;BME280;10220;42.716;23.306;2023-05-16T11:19:34;94698.53;;;18.78;100.00
20119;BME280;10220;42.716;23.306;2023-05-16T11:24:32;94708.50;;;18.85;100.00
20119;BME280;10220;42.716;23.306;2023-05-16T11:27:00;94709.28;;;18.96;100.00
20119;BME280;10220;42.716;23.306;2023-05-16T11:29:27;94722.69;;;18.84;100.00
20119;BME280;10220;42.716;23.306;2023-05-16T11:31:53;94704.53;;;18.93;100.00
20119;BME280;10220;42.716;23.306;2023-05-16T11:34:18;94691.44;;;18.88;100.00
20119;BME280;10220;42.716;23.306;2023-05-16T11:36:44;94689.06;;;19.06;100.00
20119;BME280;10220;42.716;23.306;2023-05-16T11:39:10;94678.78;;;19.15;100.00
20119;BME280;10220;42.716;23.306;2023-05-16T11:41:37;94680.59;;;19.24;100.00
20119;BME280;10220;42.716;23.306;2023-05-16T11:44:03;94662.25;;;19.14;100.00
20119;BME280;10220;42.716;23.306;2023-05-16T11:46:30;94677.22;;;19.14;100.00
20119;BME280;10220;42.716;23.306;2023-05-16T11:48:55;94682.41;;;19.34;100.00
20119;BME280;10220;42.716;23.306;2023-05-16T11:51:21;94673.97;;;19.42;100.00
20119;BME280;10220;42.716;23.306;2023-05-16T11:53:48;94673.72;;;19.38;100.00
20119;BME280;10220;42.716;23.306;2023-05-16T11:56:16;94678.72;;;19.35;100.00
20119;BME280;10220;42.716;23.306;2023-05-16T11:58:45;94663.22;;;19.38;100.00
20119;BME280;10220;42.716;23.306;2023-05-16T12:01:11;94674.44;;;19.58;100.00
20119;BME280;10220;42.716;23.306;2023-05-16T12:03:40;94660.56;;;19.43;100.00
20119;BME280;10220;42.716;23.306;2023-05-16T12:06:11;94647.09;;;19.59;100.00
20119;BME280;10220;42.716;23.306;2023-05-16T12:08:37;94655.91;;;19.78;100.00
20119;BME280;10220;42.716;23.306;2023-05-16T12:11:11;94652.69;;;19.96;100.00
20119;BME280;10220;42.716;23.306;2023-05-16T12:13:36;94632.47;;;19.87;100.00
20119;BME280;10220;42.716;23.306;2023-05-16T12:16:25;94600.13;;;19.86;100.00
20119;BME280;10220;42.716;23.306;2023-05-16T12:19:24;94607.72;;;19.93;100.00
20119;BME280;10220;42.716;23.306;2023-05-16T12:25:33;94627.25;;;20.20;100.00
20119;BME280;10220;42.716;23.306;2023-05-16T12:28:11;94597.72;;;19.95;100.00
20119;BME280;10220;42.716;23.306;2023-05-16T12:30:43;94620.28;;;20.01;100.00
20119;BME280;10220;42.716;23.306;2023-05-16T12:33:13;94617.78;;;20.19;100.00
20119;BME280;10220;42.716;23.306;2023-05-16T12:35:41;94628.09;;;20.15;100.00
20119;BME280;10220;42.716;23.306;2023-05-16T12:38:09;94631.66;;;20.29;100.00
20119;BME280;10220;42.716;23.306;2023-05-16T12:40:39;94619.81;;;20.27;100.00
20119;BME280;10220;42.716;23.306;2023-05-16T12:43:21;94637.28;;;20.18;100.00
20119;BME280;10220;42.716;23.306;2023-05-16T12:45:56;94615.28;;;20.04;100.00
20119;BME280;10220;42.716;23.306;2023-05-16T12:51:46;94638.44;;;20.02;100.00
20119;BME280;10220;42.716;23.306;2023-05-16T12:54:27;94635.97;;;19.72;100.00
20119;BME280;10220;42.716;23.306;2023-05-16T12:57:03;94605.34;;;19.48;100.00
20119;BME280;10220;42.716;23.306;2023-05-16T13:02:47;94620.41;;;19.33;100.00
20119;BME280;10220;42.716;23.306;2023-05-16T13:05:25;94640.34;;;19.39;100.00
20119;BME280;10220;42.716;23.306;2023-05-16T13:34:50;94623.38;;;19.11;100.00
20119;BME280;10220;42.716;23.306;2023-05-16T13:37:19;94646.97;;;19.26;100.00